createdAt,value
2022-08-25T00:02:55.561Z,17.80
2022-08-25T00:07:59.729Z,17.80
2022-08-25T00:13:07.723Z,17.50
2022-08-25T00:18:19.930Z,17.50
2022-08-25T00:23:20.710Z,17.70
2022-08-25T00:28:26.477Z,17.80
2022-08-25T00:33:34.665Z,17.50
2022-08-25T00:38:41.485Z,17.70
2022-08-25T00:43:56.827Z,17.70
2022-08-25T00:49:05.168Z,17.70
2022-08-25T00:54:14.798Z,17.70
2022-08-25T00:59:22.909Z,17.60
2022-08-25T01:04:30.026Z,17.70
2022-08-25T01:09:36.796Z,17.70
2022-08-25T01:14:45.115Z,17.60
2022-08-25T01:19:50.689Z,17.70
2022-08-25T01:25:02.362Z,17.80
2022-08-25T01:30:08.627Z,17.70
2022-08-25T01:35:14.300Z,17.80
2022-08-25T01:40:20.885Z,17.60
2022-08-25T01:45:25.636Z,17.60
2022-08-25T01:50:32.948Z,17.50
2022-08-25T01:55:46.110Z,17.50
2022-08-25T02:00:54.813Z,17.50
2022-08-25T02:06:01.321Z,17.50
2022-08-25T02:11:11.399Z,17.50
2022-08-25T02:16:25.069Z,17.50
2022-08-25T02:21:30.256Z,17.60
2022-08-25T02:26:37.257Z,17.70
2022-08-25T02:31:42.550Z,17.70
2022-08-25T02:36:48.455Z,17.80
2022-08-25T02:41:54.219Z,17.90
2022-08-25T02:46:59.922Z,17.80
2022-08-25T02:52:05.356Z,17.80
2022-08-25T02:57:11.776Z,17.80
2022-08-25T03:02:17.704Z,17.90
2022-08-25T03:07:23.642Z,17.90
2022-08-25T03:12:31.143Z,17.70
2022-08-25T03:17:37.392Z,17.90
2022-08-25T03:22:44.733Z,17.90
2022-08-25T03:27:49.917Z,17.90
2022-08-25T03:32:55.051Z,18.00
2022-08-25T03:38:01.715Z,18.00
2022-08-25T03:43:06.533Z,17.90
2022-08-25T03:48:14.198Z,18.00
2022-08-25T03:53:20.743Z,18.10
2022-08-25T03:58:25.980Z,18.00
2022-08-25T04:03:31.296Z,18.10
2022-08-25T04:08:37.007Z,18.10
2022-08-25T04:13:43.484Z,18.00
2022-08-25T04:18:49.613Z,18.10
2022-08-25T04:23:55.160Z,17.90
2022-08-25T04:29:03.684Z,17.90
2022-08-25T04:34:30.555Z,18.00
2022-08-25T04:39:17.644Z,18.00
2022-08-25T04:44:23.559Z,18.10
2022-08-25T04:49:29.820Z,18.20
2022-08-25T04:54:37.097Z,18.20
2022-08-25T04:59:43.081Z,18.30
2022-08-25T05:04:48.016Z,18.30
2022-08-25T05:09:54.033Z,18.20
2022-08-25T05:15:01.143Z,18.30
2022-08-25T05:20:06.862Z,18.30
2022-08-25T05:25:14.719Z,18.20
2022-08-25T05:30:20.456Z,18.40
2022-08-25T05:35:26.254Z,18.50
2022-08-25T05:40:32.210Z,18.60
2022-08-25T05:45:37.345Z,18.60
2022-08-25T05:50:43.406Z,18.70
2022-08-25T05:55:49.474Z,18.70
2022-08-25T06:00:54.070Z,18.80
2022-08-25T06:06:08.029Z,18.90
2022-08-25T06:11:14.903Z,19.00
2022-08-25T06:16:20.639Z,18.90
2022-08-25T06:21:25.749Z,18.80
2022-08-25T06:26:30.904Z,18.80
2022-08-25T06:31:37.058Z,18.90
2022-08-25T06:36:42.452Z,19.00
2022-08-25T06:41:49.315Z,19.00
2022-08-25T06:46:55.420Z,19.30
2022-08-25T06:52:00.834Z,19.40
2022-08-25T06:57:11.225Z,19.40
2022-08-25T07:02:22.104Z,19.60
2022-08-25T07:07:24.409Z,19.60
2022-08-25T07:12:29.475Z,19.40
2022-08-25T07:17:34.889Z,19.40
2022-08-25T07:22:41.502Z,19.60
2022-08-25T07:27:46.806Z,19.90
2022-08-25T07:32:55.014Z,20.10
2022-08-25T07:37:59.812Z,20.00
2022-08-25T07:43:08.934Z,20.30
2022-08-25T07:48:14.170Z,20.60
2022-08-25T07:53:21.142Z,20.80
2022-08-25T07:58:28.911Z,20.90
2022-08-25T08:03:50.696Z,20.70
2022-08-25T08:08:44.809Z,20.90
2022-08-25T08:13:51.593Z,21.00
2022-08-25T08:18:58.909Z,21.10
2022-08-25T08:24:10.664Z,21.40
2022-08-25T08:29:12.739Z,22.10
2022-08-25T08:34:18.889Z,22.80
2022-08-25T08:39:24.698Z,23.10
2022-08-25T08:44:34.160Z,22.80
2022-08-25T08:49:58.427Z,22.90
2022-08-25T08:55:07.426Z,22.70
2022-08-25T09:00:13.032Z,22.70
2022-08-25T09:05:21.137Z,22.80
2022-08-25T09:10:29.231Z,23.30
2022-08-25T09:16:01.563Z,23.60
2022-08-25T09:21:18.898Z,23.80
2022-08-25T09:26:39.513Z,23.90
2022-08-25T09:31:46.556Z,23.60
2022-08-25T09:36:53.477Z,23.30
2022-08-25T09:42:01.076Z,23.70
2022-08-25T09:47:09.753Z,23.90
2022-08-25T09:52:23.837Z,24.20
2022-08-25T09:57:37.302Z,23.80
2022-08-25T10:02:44.711Z,23.60
2022-08-25T10:07:53.348Z,23.60
2022-08-25T10:13:00.819Z,23.70
2022-08-25T10:18:26.853Z,24.60
2022-08-25T10:23:36.770Z,24.40
2022-08-25T10:29:14.201Z,24.20
2022-08-25T10:34:25.132Z,24.00
2022-08-25T10:39:56.046Z,24.30
2022-08-25T10:45:31.021Z,24.00
2022-08-25T10:50:46.049Z,24.40
2022-08-25T10:56:12.796Z,24.50
2022-08-25T11:01:46.723Z,25.30
2022-08-25T11:07:02.215Z,26.10
2022-08-25T11:12:11.161Z,25.80
2022-08-25T11:17:28.276Z,25.60
2022-08-25T11:22:49.167Z,26.10
2022-08-25T11:28:01.092Z,26.00
2022-08-25T11:33:08.255Z,26.50
2022-08-25T11:38:17.518Z,27.00
2022-08-25T11:43:45.864Z,26.80
2022-08-25T11:49:09.345Z,27.30
2022-08-25T11:54:41.802Z,26.60
2022-08-25T11:59:57.220Z,27.40
2022-08-25T12:05:04.442Z,26.50
2022-08-25T12:10:15.305Z,26.40
2022-08-25T12:15:44.912Z,27.00
2022-08-25T12:21:00.058Z,26.00
2022-08-25T12:26:42.696Z,25.50
2022-08-25T12:31:53.053Z,25.40
2022-08-25T12:37:01.360Z,25.60
2022-08-25T12:42:11.935Z,25.80
2022-08-25T12:47:31.247Z,25.30
2022-08-25T12:52:38.982Z,26.40
2022-08-25T12:57:54.628Z,26.40
2022-08-25T13:03:23.864Z,25.90
2022-08-25T13:08:46.985Z,25.50
2022-08-25T13:14:02.861Z,25.80
2022-08-25T13:19:10.105Z,26.20
2022-08-25T13:24:24.297Z,26.00
2022-08-25T13:29:36.954Z,26.10
2022-08-25T13:34:43.299Z,26.60
2022-08-25T13:39:56.769Z,26.20
2022-08-25T13:44:56.966Z,26.30
2022-08-25T13:50:22.978Z,26.60
2022-08-25T13:55:38.321Z,26.70
2022-08-25T14:00:43.313Z,26.30
2022-08-25T14:05:51.634Z,26.30
2022-08-25T14:11:15.979Z,26.30
2022-08-25T14:16:25.522Z,26.60
2022-08-25T14:21:33.461Z,26.40
2022-08-25T14:26:39.719Z,25.80
2022-08-25T14:31:47.924Z,25.60
2022-08-25T14:36:53.672Z,26.00
2022-08-25T14:41:59.612Z,25.40
2022-08-25T14:47:07.137Z,25.40
2022-08-25T14:52:26.711Z,25.70
2022-08-25T14:57:31.778Z,25.40
2022-08-25T15:02:40.587Z,25.40
2022-08-25T15:08:04.636Z,25.20
2022-08-25T15:13:12.249Z,25.30
2022-08-25T15:18:19.447Z,25.00
2022-08-25T15:23:25.728Z,24.70
2022-08-25T15:28:30.747Z,25.00
2022-08-25T15:33:35.588Z,25.10
2022-08-25T15:38:43.864Z,25.10
2022-08-25T15:43:49.309Z,25.00
2022-08-25T15:48:59.568Z,25.00
2022-08-25T15:54:05.166Z,24.80
2022-08-25T15:59:10.901Z,24.90
2022-08-25T16:04:16.419Z,24.60
2022-08-25T16:09:25.540Z,24.70
2022-08-25T16:14:30.435Z,24.50
2022-08-25T16:19:38.109Z,24.30
2022-08-25T16:24:45.159Z,24.10
2022-08-25T16:29:50.053Z,24.10
2022-08-25T16:34:55.776Z,24.10
2022-08-25T16:40:01.847Z,24.00
2022-08-25T16:45:08.102Z,24.00
2022-08-25T16:50:14.198Z,23.70
2022-08-25T16:55:19.917Z,23.60
2022-08-25T17:00:28.525Z,23.60
2022-08-25T17:05:36.465Z,23.50
2022-08-25T17:10:44.290Z,23.30
2022-08-25T17:15:52.427Z,23.20
2022-08-25T17:21:06.789Z,23.30
2022-08-25T17:26:17.138Z,23.40
2022-08-25T17:31:24.084Z,23.30
2022-08-25T17:36:29.947Z,23.20
2022-08-25T17:41:37.819Z,23.10
2022-08-25T17:46:47.190Z,23.10
2022-08-25T17:51:51.274Z,23.00
2022-08-25T17:56:57.134Z,22.60
2022-08-25T18:02:02.297Z,22.30
2022-08-25T18:07:06.689Z,22.40
2022-08-25T18:12:14.180Z,22.30
2022-08-25T18:17:22.937Z,22.40
2022-08-25T18:22:28.665Z,22.20
2022-08-25T18:27:35.135Z,21.90
2022-08-25T18:32:40.531Z,21.90
2022-08-25T18:38:04.432Z,21.90
2022-08-25T18:43:15.173Z,21.70
2022-08-25T18:48:26.588Z,21.70
2022-08-25T18:53:50.746Z,21.50
2022-08-25T18:58:41.648Z,21.60
2022-08-25T19:03:47.662Z,21.40
2022-08-25T19:08:53.920Z,20.90
2022-08-25T19:13:59.863Z,21.10
2022-08-25T19:19:08.354Z,21.10
2022-08-25T19:24:15.150Z,21.30
2022-08-25T19:29:20.785Z,21.30
2022-08-25T19:34:30.838Z,21.10
2022-08-25T19:39:39.885Z,21.00
2022-08-25T19:44:45.327Z,21.10
2022-08-25T19:49:50.657Z,20.70
2022-08-25T19:54:56.708Z,20.60
2022-08-25T20:00:02.390Z,20.50
2022-08-25T20:05:09.038Z,20.20
2022-08-25T20:10:14.807Z,20.40
2022-08-25T20:15:21.182Z,20.50
2022-08-25T20:20:32.578Z,20.50
2022-08-25T20:25:36.876Z,20.60
2022-08-25T20:30:45.513Z,20.60
2022-08-25T20:35:53.111Z,20.40
2022-08-25T20:40:59.834Z,20.50
2022-08-25T20:46:07.196Z,20.40
2022-08-25T20:51:14.173Z,20.10
2022-08-25T20:56:21.706Z,20.40
2022-08-25T21:01:29.698Z,20.20
2022-08-25T21:06:36.596Z,20.30
2022-08-25T21:11:42.383Z,20.40
2022-08-25T21:16:50.312Z,20.30
2022-08-25T21:21:59.760Z,20.00
2022-08-25T21:27:04.563Z,20.20
2022-08-25T21:32:10.319Z,20.00
2022-08-25T21:37:16.270Z,20.20
2022-08-25T21:42:24.829Z,20.20
2022-08-25T21:47:31.265Z,19.70
2022-08-25T21:52:37.201Z,19.80
2022-08-25T21:57:42.491Z,19.60
2022-08-25T22:02:49.647Z,19.70
2022-08-25T22:07:55.795Z,19.70
2022-08-25T22:13:02.640Z,19.70
2022-08-25T22:18:08.367Z,19.60
2022-08-25T22:23:20.169Z,19.50
2022-08-25T22:28:24.894Z,19.50
2022-08-25T22:33:31.415Z,19.50
2022-08-25T22:38:37.077Z,19.50
2022-08-25T22:43:43.457Z,19.40
2022-08-25T22:48:51.512Z,19.20
2022-08-25T22:53:57.752Z,19.30
2022-08-25T22:59:04.116Z,19.30
2022-08-25T23:04:09.471Z,19.30
2022-08-25T23:09:16.287Z,19.30
2022-08-25T23:14:21.869Z,18.80
2022-08-25T23:19:28.091Z,18.90
2022-08-25T23:24:33.895Z,19.10
2022-08-25T23:29:41.454Z,19.00
2022-08-25T23:34:47.899Z,18.80
2022-08-25T23:39:53.851Z,18.50
2022-08-25T23:45:00.437Z,18.70
2022-08-25T23:50:07.942Z,18.60
2022-08-25T23:55:14.183Z,18.40
